createdAt,value
2022-12-10T00:00:55.679Z,22.38
2022-12-10T00:04:27.447Z,19.55
2022-12-10T00:07:59.721Z,18.55
2022-12-10T00:11:32.278Z,17.60
2022-12-10T00:15:04.868Z,17.80
2022-12-10T00:18:37.938Z,18.63
2022-12-10T00:22:10.262Z,23.70
2022-12-10T00:25:41.905Z,20.48
2022-12-10T00:29:14.005Z,20.85
2022-12-10T00:32:45.842Z,19.73
2022-12-10T00:36:21.930Z,16.65
2022-12-10T00:39:53.611Z,19.45
2022-12-10T00:43:25.589Z,17.65
2022-12-10T00:46:57.387Z,18.60
2022-12-10T00:50:29.457Z,18.38
2022-12-10T00:54:01.184Z,18.27
2022-12-10T00:57:33.313Z,16.17
2022-12-10T01:01:25.366Z,16.60
2022-12-10T01:04:57.592Z,17.60
2022-12-10T01:08:29.293Z,18.17
2022-12-10T01:12:03.846Z,17.02
2022-12-10T01:15:39.152Z,18.77
2022-12-10T01:19:11.434Z,17.45
2022-12-10T01:22:43.215Z,20.30
2022-12-10T01:26:18.616Z,19.08
2022-12-10T01:29:50.269Z,17.77
2022-12-10T01:33:22.599Z,17.50
2022-12-10T01:36:55.303Z,18.83
2022-12-10T01:40:27.282Z,17.75
2022-12-10T01:44:02.008Z,17.83
2022-12-10T01:47:34.363Z,16.60
2022-12-10T01:51:06.349Z,17.85
2022-12-10T01:54:41.604Z,19.80
2022-12-10T01:58:15.596Z,18.57
2022-12-10T02:01:58.231Z,19.05
2022-12-10T02:05:41.773Z,17.58
2022-12-10T02:09:40.800Z,18.03
2022-12-10T02:13:25.521Z,19.42
2022-12-10T02:17:02.925Z,19.55
2022-12-10T02:20:44.948Z,18.00
2022-12-10T02:24:23.510Z,19.45
2022-12-10T02:27:58.167Z,17.88
2022-12-10T02:31:32.184Z,19.40
2022-12-10T02:35:10.437Z,17.07
2022-12-10T02:38:44.282Z,19.70
2022-12-10T02:42:18.888Z,19.55
2022-12-10T02:45:51.946Z,17.43
2022-12-10T02:49:26.500Z,18.90
2022-12-10T02:52:58.859Z,16.85
2022-12-10T02:56:50.042Z,17.43
2022-12-10T03:00:24.868Z,18.90
2022-12-10T03:04:04.249Z,18.27
2022-12-10T03:07:46.070Z,15.80
2022-12-10T03:11:20.819Z,17.77
2022-12-10T03:14:59.100Z,18.00
2022-12-10T03:18:33.927Z,16.77
2022-12-10T03:22:07.609Z,15.60
2022-12-10T03:25:40.282Z,16.40
2022-12-10T03:29:19.163Z,16.52
2022-12-10T03:32:51.387Z,16.37
2022-12-10T03:36:25.018Z,15.52
2022-12-10T03:39:58.180Z,17.67
2022-12-10T03:43:30.289Z,16.80
2022-12-10T03:47:03.737Z,15.83
2022-12-10T03:50:35.733Z,15.27
2022-12-10T03:54:07.507Z,16.00
2022-12-10T03:57:39.473Z,16.17
2022-12-10T04:01:11.486Z,16.48
2022-12-10T04:04:43.608Z,15.45
2022-12-10T04:08:16.082Z,15.90
2022-12-10T04:11:48.476Z,15.60
2022-12-10T04:15:38.862Z,18.00
2022-12-10T04:19:13.675Z,16.33
2022-12-10T04:23:03.796Z,15.87
2022-12-10T04:26:53.641Z,14.82
2022-12-10T04:30:25.632Z,15.38
2022-12-10T04:33:57.618Z,14.67
2022-12-10T04:37:30.230Z,15.88
2022-12-10T04:41:02.350Z,15.32
2022-12-10T04:44:34.430Z,15.53
2022-12-10T04:48:06.587Z,15.50
2022-12-10T04:51:39.039Z,16.70
2022-12-10T04:55:11.188Z,16.15
2022-12-10T04:58:43.313Z,13.20
2022-12-10T05:02:15.676Z,14.48
2022-12-10T05:05:47.541Z,15.32
2022-12-10T05:09:19.921Z,13.13
2022-12-10T05:12:51.557Z,14.93
2022-12-10T05:16:25.804Z,13.45
2022-12-10T05:19:57.452Z,13.07
2022-12-10T05:23:29.453Z,13.80
2022-12-10T05:27:01.409Z,14.43
2022-12-10T05:30:35.944Z,13.40
2022-12-10T05:34:09.254Z,14.23
2022-12-10T05:37:41.322Z,13.43
2022-12-10T05:41:18.060Z,9.70
2022-12-10T05:44:50.100Z,11.00
2022-12-10T05:48:21.872Z,11.93
2022-12-10T05:51:56.372Z,11.35
2022-12-10T05:55:29.960Z,10.67
2022-12-10T05:59:03.935Z,10.30
2022-12-10T06:02:36.038Z,10.80
2022-12-10T06:06:08.980Z,10.35
2022-12-10T06:09:40.736Z,11.63
2022-12-10T06:13:12.689Z,10.98
2022-12-10T06:16:44.359Z,13.43
2022-12-10T06:20:16.540Z,12.97
2022-12-10T06:23:49.913Z,12.65
2022-12-10T06:27:21.966Z,10.63
2022-12-10T06:30:53.729Z,12.63
2022-12-10T06:34:25.973Z,12.45
2022-12-10T06:37:57.635Z,11.63
2022-12-10T06:41:29.616Z,13.35
2022-12-10T06:45:01.318Z,12.93
2022-12-10T06:48:33.338Z,13.35
2022-12-10T06:52:05.426Z,12.98
2022-12-10T06:55:39.382Z,12.50
2022-12-10T06:59:11.241Z,14.52
2022-12-10T07:02:43.568Z,13.32
2022-12-10T07:06:15.449Z,14.67
2022-12-10T07:09:47.874Z,14.13
2022-12-10T07:13:19.523Z,14.07
2022-12-10T07:16:51.617Z,13.25
2022-12-10T07:20:23.347Z,14.90
2022-12-10T07:23:59.185Z,14.07
2022-12-10T07:27:32.440Z,14.00
2022-12-10T07:31:06.504Z,14.40
2022-12-10T07:34:38.306Z,15.07
2022-12-10T07:38:10.266Z,13.85
2022-12-10T07:41:42.060Z,13.60
2022-12-10T07:45:14.281Z,14.48
2022-12-10T07:48:47.237Z,15.43
2022-12-10T07:52:19.285Z,16.05
2022-12-10T07:55:51.721Z,16.87
2022-12-10T07:59:23.657Z,15.93
2022-12-10T08:02:55.428Z,14.40
2022-12-10T08:06:29.448Z,12.23
2022-12-10T08:10:01.208Z,14.88
2022-12-10T08:13:34.241Z,14.48
2022-12-10T08:17:06.094Z,13.03
2022-12-10T08:20:38.170Z,13.38
2022-12-10T08:24:09.900Z,12.85
2022-12-10T08:27:42.260Z,11.90
2022-12-10T08:31:15.427Z,10.17
2022-12-10T08:34:47.540Z,13.35
2022-12-10T08:38:19.290Z,12.00
2022-12-10T08:41:51.428Z,10.53
2022-12-10T08:45:23.074Z,11.25
2022-12-10T08:48:55.991Z,10.98
2022-12-10T08:52:30.172Z,10.87
2022-12-10T08:56:02.222Z,10.93
2022-12-10T08:59:33.888Z,9.45
2022-12-10T09:03:05.813Z,9.30
2022-12-10T09:06:37.634Z,9.63
2022-12-10T09:10:13.196Z,10.63
2022-12-10T09:13:45.326Z,10.07
2022-12-10T09:17:17.282Z,8.77
2022-12-10T09:20:48.903Z,10.70
2022-12-10T09:24:21.273Z,9.07
2022-12-10T09:27:52.929Z,8.80
2022-12-10T09:31:25.598Z,9.80
2022-12-10T09:34:57.489Z,9.60
2022-12-10T09:38:29.630Z,9.68
2022-12-10T09:42:04.562Z,8.40
2022-12-10T09:45:59.388Z,10.02
2022-12-10T09:49:59.332Z,8.70
2022-12-10T09:53:32.723Z,8.03
2022-12-10T09:57:06.361Z,9.30
2022-12-10T10:00:42.493Z,8.43
2022-12-10T10:04:14.286Z,8.73
2022-12-10T10:07:50.386Z,9.55
2022-12-10T10:11:30.336Z,9.50
2022-12-10T10:15:15.430Z,10.20
2022-12-10T10:18:58.910Z,8.57
2022-12-10T10:22:31.336Z,8.45
2022-12-10T10:26:03.405Z,9.27
2022-12-10T10:29:35.574Z,8.13
2022-12-10T10:33:10.349Z,9.10
2022-12-10T10:36:42.715Z,10.30
2022-12-10T10:40:40.726Z,9.73
2022-12-10T10:44:18.011Z,8.48
2022-12-10T10:48:04.460Z,8.63
2022-12-10T10:51:44.403Z,8.77
2022-12-10T10:55:37.192Z,8.63
2022-12-10T10:59:16.835Z,7.88
2022-12-10T11:02:49.017Z,8.75
2022-12-10T11:06:21.892Z,7.77
2022-12-10T11:09:55.626Z,7.57
2022-12-10T11:13:29.665Z,7.28
2022-12-10T11:17:20.984Z,7.77
2022-12-10T11:21:01.378Z,6.85
2022-12-10T11:24:33.178Z,7.78
2022-12-10T11:28:23.054Z,7.43
2022-12-10T11:32:34.018Z,6.97
2022-12-10T11:36:39.433Z,7.18
2022-12-10T11:40:22.635Z,8.23
2022-12-10T11:44:25.311Z,7.80
2022-12-10T11:48:18.997Z,8.63
2022-12-10T11:51:56.918Z,9.60
2022-12-10T11:55:46.255Z,8.23
2022-12-10T11:59:46.283Z,8.98
2022-12-10T12:03:38.020Z,10.68
2022-12-10T12:07:30.842Z,9.75
2022-12-10T12:11:08.688Z,8.13
2022-12-10T12:14:52.526Z,10.27
2022-12-10T12:18:52.717Z,7.70
2022-12-10T12:22:36.015Z,7.80
2022-12-10T12:26:15.952Z,7.82
2022-12-10T12:30:21.431Z,8.77
2022-12-10T12:34:00.728Z,8.53
2022-12-10T12:38:07.193Z,8.98
2022-12-10T12:41:48.117Z,8.38
2022-12-10T12:45:37.430Z,7.32
2022-12-10T12:49:19.431Z,7.13
2022-12-10T12:53:00.288Z,8.05
2022-12-10T12:56:35.105Z,7.65
2022-12-10T13:00:15.853Z,7.80
2022-12-10T13:03:51.127Z,8.38
2022-12-10T13:07:23.213Z,8.23
2022-12-10T13:11:18.787Z,8.53
2022-12-10T13:14:53.593Z,8.00
2022-12-10T13:18:39.255Z,6.50
2022-12-10T13:22:12.593Z,7.30
2022-12-10T13:25:47.001Z,7.23
2022-12-10T13:29:27.834Z,7.78
2022-12-10T13:33:20.466Z,6.03
2022-12-10T13:36:52.659Z,7.47
2022-12-10T13:40:52.027Z,7.95
2022-12-10T13:45:01.713Z,7.90
2022-12-10T13:48:35.796Z,6.47
2022-12-10T13:52:17.834Z,7.38
2022-12-10T13:56:13.535Z,6.97
2022-12-10T14:00:08.029Z,8.20
2022-12-10T14:04:00.403Z,7.70
2022-12-10T14:07:33.087Z,6.50
2022-12-10T14:11:09.673Z,7.18
2022-12-10T14:15:01.023Z,7.30
2022-12-10T14:18:33.233Z,8.85
2022-12-10T14:22:14.309Z,8.23
2022-12-10T14:25:48.023Z,9.83
2022-12-10T14:29:27.458Z,10.00
2022-12-10T14:33:01.179Z,10.70
2022-12-10T14:36:38.072Z,11.73
2022-12-10T14:40:11.135Z,9.30
2022-12-10T14:43:43.470Z,9.60
2022-12-10T14:47:16.273Z,8.02
2022-12-10T14:50:48.351Z,7.67
2022-12-10T14:54:29.934Z,6.68
2022-12-10T14:58:04.930Z,7.63
2022-12-10T15:01:45.987Z,8.73
2022-12-10T15:05:21.588Z,8.57
2022-12-10T15:08:57.043Z,8.27
2022-12-10T15:12:44.334Z,8.65
2022-12-10T15:16:27.942Z,8.60
2022-12-10T15:20:00.345Z,7.43
2022-12-10T15:23:35.231Z,7.47
2022-12-10T15:27:22.370Z,7.57
2022-12-10T15:31:19.201Z,7.50
2022-12-10T15:34:57.627Z,8.57
2022-12-10T15:38:29.887Z,8.37
2022-12-10T15:42:06.656Z,9.30
2022-12-10T15:45:41.411Z,7.68
2022-12-10T15:49:13.445Z,8.30
2022-12-10T15:52:45.946Z,9.53
2022-12-10T15:56:18.427Z,9.18
2022-12-10T15:59:52.695Z,8.75
2022-12-10T16:03:28.490Z,8.03
2022-12-10T16:07:00.132Z,9.23
2022-12-10T16:10:32.320Z,8.57
2022-12-10T16:14:04.720Z,8.37
2022-12-10T16:17:36.767Z,8.70
2022-12-10T16:21:09.263Z,8.68
2022-12-10T16:24:45.026Z,7.85
2022-12-10T16:28:19.814Z,7.67
2022-12-10T16:31:51.931Z,7.82
2022-12-10T16:35:23.649Z,7.60
2022-12-10T16:38:55.579Z,7.53
2022-12-10T16:42:27.585Z,7.88
2022-12-10T16:45:59.846Z,8.82
2022-12-10T16:49:31.638Z,11.33
2022-12-10T16:53:19.896Z,10.15
2022-12-10T16:56:51.796Z,8.05
2022-12-10T17:00:25.509Z,8.35
2022-12-10T17:03:59.209Z,8.50
2022-12-10T17:07:31.516Z,8.15
2022-12-10T17:11:49.422Z,8.38
2022-12-10T17:15:21.802Z,6.83
2022-12-10T17:18:53.527Z,7.22
2022-12-10T17:22:25.657Z,7.43
2022-12-10T17:25:58.481Z,8.37
2022-12-10T17:29:34.901Z,7.97
2022-12-10T17:33:06.713Z,7.47
2022-12-10T17:36:40.328Z,8.23
2022-12-10T17:40:19.824Z,8.17
2022-12-10T17:43:51.795Z,8.57
2022-12-10T17:47:26.136Z,10.20
2022-12-10T17:50:58.254Z,8.93
2022-12-10T17:54:29.932Z,7.47
2022-12-10T17:58:01.896Z,8.63
2022-12-10T18:01:34.840Z,9.03
2022-12-10T18:05:07.010Z,8.18
2022-12-10T18:08:38.710Z,8.70
2022-12-10T18:12:11.883Z,9.15
2022-12-10T18:15:43.716Z,6.93
2022-12-10T18:19:16.752Z,9.77
2022-12-10T18:22:48.701Z,8.70
2022-12-10T18:26:24.673Z,9.27
2022-12-10T18:29:56.525Z,9.23
2022-12-10T18:33:28.884Z,10.70
2022-12-10T18:37:00.724Z,10.53
2022-12-10T18:40:33.248Z,12.30
2022-12-10T18:44:04.947Z,11.43
2022-12-10T18:47:36.969Z,10.27
2022-12-10T18:51:08.959Z,11.40
2022-12-10T18:54:41.255Z,9.05
2022-12-10T18:58:14.098Z,8.43
2022-12-10T19:01:46.638Z,8.87
2022-12-10T19:05:19.144Z,8.82
2022-12-10T19:12:45.535Z,6.53
2022-12-10T19:16:23.887Z,9.02
2022-12-10T19:19:55.699Z,9.02
2022-12-10T19:23:27.831Z,8.13
2022-12-10T19:26:59.492Z,7.27
2022-12-10T19:30:31.725Z,8.98
2022-12-10T19:34:03.621Z,7.38
2022-12-10T19:37:35.549Z,7.40
2022-12-10T19:41:07.305Z,8.82
2022-12-10T19:44:39.480Z,6.60
2022-12-10T19:48:11.529Z,7.37
2022-12-10T19:51:44.578Z,7.30
2022-12-10T19:55:18.197Z,7.00
2022-12-10T19:58:52.185Z,6.15
2022-12-10T20:02:24.133Z,6.30
2022-12-10T20:05:56.345Z,7.68
2022-12-10T20:09:28.156Z,7.22
2022-12-10T20:13:00.170Z,6.90
2022-12-10T20:16:32.945Z,7.10
2022-12-10T20:20:05.556Z,8.05
2022-12-10T20:23:37.396Z,6.70
2022-12-10T20:27:13.467Z,7.53
2022-12-10T20:30:45.341Z,8.38
2022-12-10T20:34:18.264Z,5.60
2022-12-10T20:37:50.901Z,6.97
2022-12-10T20:41:24.003Z,7.70
2022-12-10T20:44:55.809Z,5.75
2022-12-10T20:48:27.992Z,7.40
2022-12-10T20:51:59.691Z,7.45
2022-12-10T20:55:31.657Z,8.15
2022-12-10T20:59:04.641Z,7.67
2022-12-10T21:02:36.952Z,8.02
2022-12-10T21:06:14.265Z,7.45
2022-12-10T21:09:46.470Z,7.70
2022-12-10T21:13:19.754Z,6.00
2022-12-10T21:16:51.761Z,8.73
2022-12-10T21:20:28.865Z,8.68
2022-12-10T21:24:01.613Z,8.60
2022-12-10T21:27:33.300Z,9.93
2022-12-10T21:31:06.047Z,7.68
2022-12-10T21:34:37.956Z,8.17
2022-12-10T21:38:10.658Z,8.07
2022-12-10T21:42:00.616Z,8.13
2022-12-10T21:45:32.893Z,8.30
2022-12-10T21:49:05.563Z,9.70
2022-12-10T21:52:38.195Z,8.90
2022-12-10T21:56:11.779Z,8.52
2022-12-10T21:59:43.947Z,8.43
2022-12-10T22:03:16.090Z,7.97
2022-12-10T22:06:48.126Z,7.25
2022-12-10T22:10:19.929Z,7.17
2022-12-10T22:13:56.062Z,7.90
2022-12-10T22:17:28.300Z,7.82
2022-12-10T22:21:01.614Z,8.48
2022-12-10T22:24:34.727Z,6.00
2022-12-10T22:28:06.853Z,7.00
2022-12-10T22:31:38.762Z,7.45
2022-12-10T22:35:12.807Z,7.00
2022-12-10T22:38:45.087Z,7.95
2022-12-10T22:42:17.260Z,7.32
2022-12-10T22:45:54.050Z,8.20
2022-12-10T22:49:26.093Z,7.80
2022-12-10T22:52:57.817Z,6.75
2022-12-10T22:56:30.677Z,9.55
2022-12-10T23:00:08.192Z,8.80
2022-12-10T23:03:40.121Z,7.22
2022-12-10T23:07:11.963Z,8.35
2022-12-10T23:10:44.220Z,6.93
2022-12-10T23:14:16.052Z,10.15
2022-12-10T23:17:48.032Z,7.10
2022-12-10T23:21:23.636Z,10.37
2022-12-10T23:24:56.229Z,7.47
2022-12-10T23:28:28.105Z,7.38
2022-12-10T23:32:00.777Z,6.78
2022-12-10T23:35:38.309Z,6.83
2022-12-10T23:39:10.489Z,6.68
2022-12-10T23:42:42.363Z,6.85
2022-12-10T23:46:19.640Z,7.23
2022-12-10T23:49:51.789Z,8.40
2022-12-10T23:53:34.174Z,7.35
2022-12-10T23:57:06.072Z,8.73
